Time;durP1;ratioP1;P1;durP2;ratioP2;P2;SDS_P1;SDS_P2;PMS_P1;PMS_P2;Temp;Humidity;BMP_temperature;BMP_pressure;BME280_temperature;BME280_humidity;BME280_pressure;Samples;Min_cycle;Max_cycle;Signal;HPM_P1;HPM_P2
2023/12/22 00:01:54;;;;;;;1999.90;999.90;;;5.60;99.90;;;;;;5070359;28;20409;-77
2023/12/22 00:04:19;;;;;;;1999.90;999.90;;;4.80;99.90;;;;;;5071903;28;20658;-77
2023/12/22 00:06:48;;;;;;;1999.90;999.90;;;4.70;99.90;;;;;;5072040;28;20280;-76
2023/12/22 00:09:13;;;;;;;1999.90;999.90;;;5.50;99.90;;;;;;5071887;28;20183;-76
2023/12/22 00:11:39;;;;;;;1999.90;999.90;;;4.70;99.90;;;;;;5071661;28;20456;-76
2023/12/22 00:14:04;;;;;;;1999.90;999.90;;;4.70;99.90;;;;;;5070536;28;20180;-76
2023/12/22 00:16:30;;;;;;;1999.90;999.90;;;4.80;99.90;;;;;;5071811;28;20312;-76
2023/12/22 00:18:56;;;;;;;1999.90;999.90;;;4.80;99.90;;;;;;5071906;28;20739;-76
2023/12/22 00:21:21;;;;;;;1999.90;999.90;;;4.80;99.90;;;;;;5071584;28;20209;-76
2023/12/22 00:23:47;;;;;;;1999.90;999.90;;;4.90;99.90;;;;;;5071913;28;20418;-77
2023/12/22 00:26:13;;;;;;;1999.90;999.90;;;4.90;99.90;;;;;;5071837;28;20186;-77
2023/12/22 00:28:38;;;;;;;1999.90;999.90;;;4.90;99.90;;;;;;5071672;28;20209;-77
2023/12/22 00:31:04;;;;;;;1999.90;999.90;;;4.90;99.90;;;;;;5058980;28;20249;-77
2023/12/22 00:33:29;;;;;;;1999.90;999.90;;;5.00;99.90;;;;;;5054124;28;20168;-76
2023/12/22 00:35:55;;;;;;;1999.90;999.90;;;5.00;99.90;;;;;;5055660;28;20584;-77
2023/12/22 00:38:21;;;;;;;1999.90;999.90;;;;;;;;;;5055679;28;20350;-77
2023/12/22 00:40:46;;;;;;;1999.90;999.90;;;5.10;99.90;;;;;;5055417;28;20171;-77
2023/12/22 00:43:12;;;;;;;1999.90;999.90;;;5.10;99.90;;;;;;5055566;28;20485;-76
2023/12/22 00:45:37;;;;;;;1999.90;999.90;;;5.10;99.90;;;;;;5055703;28;20172;-76
2023/12/22 00:48:03;;;;;;;1999.90;999.90;;;5.10;99.90;;;;;;5055462;28;20571;-76
2023/12/22 00:50:29;;;;;;;1999.90;999.90;;;5.20;99.90;;;;;;5055308;28;20172;-76
2023/12/22 00:52:54;;;;;;;1999.90;999.90;;;5.20;99.90;;;;;;5055404;28;20416;-77
2023/12/22 00:55:20;;;;;;;1999.90;999.90;;;5.30;99.90;;;;;;5055547;28;20160;-76
2023/12/22 00:57:45;;;;;;;1999.90;999.90;;;5.30;99.90;;;;;;5055314;28;20164;-76
2023/12/22 01:00:12;;;;;;;1999.90;999.90;;;5.30;99.90;;;;;;5055146;28;20188;-77
2023/12/22 01:02:38;;;;;;;1999.90;999.90;;;5.30;99.90;;;;;;5055149;28;20250;-76
2023/12/22 01:05:04;;;;;;;1999.90;999.90;;;5.30;99.90;;;;;;5055185;28;20420;-76
2023/12/22 01:07:30;;;;;;;1999.90;999.90;;;5.30;99.90;;;;;;5055189;28;20418;-76
2023/12/22 01:09:56;;;;;;;1999.90;999.90;;;5.30;99.90;;;;;;5054962;28;20464;-75
2023/12/22 01:12:21;;;;;;;1999.90;999.90;;;5.40;99.90;;;;;;5054871;28;20807;-76
2023/12/22 01:14:49;;;;;;;1999.90;999.90;;;5.40;99.90;;;;;;5055104;28;20203;-77
2023/12/22 01:17:14;;;;;;;1999.90;999.90;;;5.30;99.90;;;;;;5054839;28;20179;-76
2023/12/22 01:19:40;;;;;;;1999.90;999.90;;;5.30;99.90;;;;;;5053581;28;20795;-76
2023/12/22 01:22:05;;;;;;;1999.90;999.90;;;5.40;99.90;;;;;;5054843;28;20182;-76
2023/12/22 01:24:31;;;;;;;1999.90;999.90;;;5.50;99.90;;;;;;5054809;28;20179;-77
2023/12/22 01:26:56;;;;;;;1999.90;999.90;;;5.60;99.90;;;;;;5054733;28;20232;-76
2023/12/22 01:29:22;;;;;;;1999.90;999.90;;;5.50;99.90;;;;;;5054587;28;20671;-76
2023/12/22 01:31:48;;;;;;;1999.90;999.90;;;5.60;99.90;;;;;;5054571;28;20192;-76
2023/12/22 01:34:13;;;;;;;1999.90;999.90;;;5.60;99.90;;;;;;5054685;28;20174;-76
2023/12/22 01:36:39;;;;;;;1999.90;999.90;;;5.60;99.90;;;;;;5054576;28;20199;-76
2023/12/22 01:39:04;;;;;;;1999.90;999.90;;;5.70;99.90;;;;;;5054346;28;20237;-76
2023/12/22 01:41:30;;;;;;;1999.90;999.90;;;5.80;99.90;;;;;;5054384;28;20203;-78
2023/12/22 01:43:55;;;;;;;1999.90;999.90;;;5.80;99.90;;;;;;5055526;28;20179;-77
2023/12/22 01:46:21;;;;;;;1999.90;999.90;;;5.90;99.90;;;;;;5056242;28;20259;-77
2023/12/22 01:48:47;;;;;;;1999.90;999.90;;;6.00;99.90;;;;;;5055983;28;20195;-78
2023/12/22 01:51:12;;;;;;;1999.90;999.90;;;6.10;99.90;;;;;;5055739;28;20641;-78
2023/12/22 01:53:38;;;;;;;1999.90;999.90;;;6.10;99.90;;;;;;5056664;28;20176;-77
2023/12/22 01:56:04;;;;;;;1999.90;999.90;;;6.10;99.90;;;;;;5055997;28;20250;-77
2023/12/22 01:58:32;;;;;;;1999.90;999.90;;;6.20;99.90;;;;;;5055008;28;20663;-77
2023/12/22 02:00:58;;;;;;;1999.90;999.90;;;6.10;99.90;;;;;;5054929;28;20497;-77
2023/12/22 02:03:23;;;;;;;1999.90;999.90;;;6.40;99.90;;;;;;5054735;28;20509;-78
2023/12/22 02:05:49;;;;;;;1999.90;999.90;;;6.10;99.90;;;;;;5055037;28;20225;-78
2023/12/22 02:08:18;;;;;;;1999.90;999.90;;;6.10;99.90;;;;;;5054725;28;20164;-78
2023/12/22 02:10:44;;;;;;;1999.90;999.90;;;6.20;99.90;;;;;;5055123;28;20167;-78
2023/12/22 02:13:10;;;;;;;1999.90;999.90;;;6.30;99.90;;;;;;5054738;28;20428;-76
2023/12/22 02:15:36;;;;;;;1999.90;999.90;;;6.30;99.90;;;;;;5054260;28;20426;-77
2023/12/22 02:18:14;;;;;;;1999.90;999.90;;;6.30;99.90;;;;;;5054947;28;20928;-77
2023/12/22 02:20:40;;;;;;;1999.90;999.90;;;6.30;99.90;;;;;;5054407;28;20497;-77
2023/12/22 02:23:06;;;;;;;1999.90;999.90;;;6.30;99.90;;;;;;5054262;28;20425;-76
2023/12/22 02:25:31;;;;;;;1999.90;999.90;;;6.50;99.90;;;;;;5055276;28;20792;-77
2023/12/22 02:28:05;;;;;;;1999.90;999.90;;;6.50;99.90;;;;;;5056035;28;20190;-77
2023/12/22 02:30:48;;;;;;;1999.90;999.90;;;6.60;99.90;;;;;;5055027;28;20166;-77
2023/12/22 02:33:15;;;;;;;1999.90;999.90;;;6.70;99.90;;;;;;5055947;28;20464;-77
2023/12/22 02:35:42;;;;;;;1999.90;999.90;;;6.90;99.90;;;;;;5056490;28;20410;-77
2023/12/22 02:38:09;;;;;;;1999.90;999.90;;;7.00;99.90;;;;;;5056177;28;20409;-78
2023/12/22 02:40:35;;;;;;;1999.90;999.90;;;7.00;99.90;;;;;;5056872;28;20394;-77
2023/12/22 02:43:02;;;;;;;1999.90;999.90;;;7.00;99.90;;;;;;5056706;28;20398;-78
2023/12/22 02:45:29;;;;;;;1999.90;999.90;;;7.00;99.90;;;;;;5057139;28;20403;-78
2023/12/22 02:47:54;;;;;;;1999.90;999.90;;;7.00;99.90;;;;;;5057112;28;20402;-77
2023/12/22 02:50:20;;;;;;;1999.90;999.90;;;7.00;99.90;;;;;;5056244;28;20426;-78
2023/12/22 02:52:45;;;;;;;1999.90;999.90;;;7.00;99.90;;;;;;5057014;28;20196;-78
2023/12/22 02:55:11;;;;;;;1999.90;999.90;;;7.00;99.90;;;;;;5055919;28;20651;-78
2023/12/22 02:57:37;;;;;;;1999.90;999.90;;;7.10;99.90;;;;;;5056767;28;20206;-77
2023/12/22 03:00:03;;;;;;;1999.90;999.90;;;7.60;99.90;;;;;;5056344;28;20180;-78
2023/12/22 03:02:28;;;;;;;1999.90;999.90;;;7.20;99.90;;;;;;5056342;28;20203;-78
2023/12/22 03:04:54;;;;;;;1999.90;999.90;;;7.20;99.90;;;;;;5057028;28;20409;-78
2023/12/22 03:07:19;;;;;;;1999.90;999.90;;;7.30;99.90;;;;;;5056533;28;20217;-78
2023/12/22 03:09:45;;;;;;;1999.90;999.90;;;7.10;99.90;;;;;;5055975;28;20184;-77
2023/12/22 03:12:11;;;;;;;1999.90;999.90;;;7.30;99.90;;;;;;5056215;28;20192;-78
2023/12/22 03:14:37;;;;;;;1999.90;999.90;;;7.50;99.90;;;;;;5068653;28;20917;-78
2023/12/22 03:17:04;;;;;;;1999.90;999.90;;;7.40;99.90;;;;;;5075355;28;20253;-78
2023/12/22 03:19:30;;;;;;;1999.90;999.90;;;7.40;99.90;;;;;;5075805;28;20428;-77
2023/12/22 03:21:56;;;;;;;1999.90;999.90;;;7.50;99.90;;;;;;5074371;28;20492;-78
2023/12/22 03:24:26;;;;;;;1999.90;999.90;;;7.50;99.90;;;;;;5075955;28;20455;-77
2023/12/22 03:26:52;;;;;;;1999.90;999.90;;;7.60;99.90;;;;;;5075049;28;20167;-77
2023/12/22 03:29:18;;;;;;;1999.90;999.90;;;7.60;99.90;;;;;;5074107;28;20429;-78
2023/12/22 03:31:45;;;;;;;1999.90;999.90;;;8.30;99.90;;;;;;5075501;28;20814;-77
2023/12/22 03:34:10;;;;;;;1999.90;999.90;;;7.60;99.90;;;;;;5076217;28;20409;-78
2023/12/22 03:36:36;;;;;;;1999.90;999.90;;;7.60;99.90;;;;;;5075193;28;20409;-77
2023/12/22 03:39:02;;;;;;;1999.90;999.90;;;7.90;99.90;;;;;;5075174;28;20186;-77
2023/12/22 03:41:29;;;;;;;1999.90;999.90;;;7.60;99.90;;;;;;5073707;28;20178;-77
2023/12/22 03:43:55;;;;;;;1999.90;999.90;;;7.30;99.90;;;;;;5072706;28;20409;-77
2023/12/22 03:46:21;;;;;;;1999.90;999.90;;;7.10;99.90;;;;;;5072729;28;20420;-78
2023/12/22 03:48:46;;;;;;;1999.90;999.90;;;6.90;99.90;;;;;;5074233;28;20425;-78
2023/12/22 03:51:13;;;;;;;1999.90;999.90;;;6.80;99.90;;;;;;5074753;28;20202;-77
2023/12/22 03:53:38;;;;;;;1999.90;999.90;;;6.80;99.90;;;;;;5075303;28;20167;-78
2023/12/22 03:56:04;;;;;;;1999.90;999.90;;;6.60;99.90;;;;;;5075663;28;20420;-77
2023/12/22 03:58:30;;;;;;;1999.90;999.90;;;6.60;99.90;;;;;;5075816;28;20187;-78
2023/12/22 04:00:56;;;;;;;1999.90;999.90;;;6.30;99.90;;;;;;5075550;28;20159;-78
2023/12/22 04:03:22;;;;;;;1999.90;999.90;;;6.40;99.90;;;;;;5075233;28;20175;-77
2023/12/22 04:05:47;;;;;;;1999.90;999.90;;;6.40;99.90;;;;;;5073544;28;20416;-78
2023/12/22 04:08:13;;;;;;;1999.90;999.90;;;6.40;99.90;;;;;;5073634;28;20167;-78
2023/12/22 04:10:39;;;;;;;1999.90;999.90;;;6.40;99.90;;;;;;5073515;28;20217;-78
2023/12/22 04:13:04;;;;;;;1999.90;999.90;;;6.40;99.90;;;;;;5073766;28;20228;-78
2023/12/22 04:15:30;;;;;;;1999.90;999.90;;;6.20;99.90;;;;;;5072543;28;20253;-77
2023/12/22 04:17:55;;;;;;;1999.90;999.90;;;6.40;99.90;;;;;;5071764;28;20808;-77
2023/12/22 04:20:21;;;;;;;1999.90;999.90;;;6.50;99.90;;;;;;5071344;28;20195;-77
2023/12/22 04:22:46;;;;;;;1999.90;999.90;;;6.40;99.90;;;;;;5071676;28;20253;-76
2023/12/22 04:25:12;;;;;;;1999.90;999.90;;;6.50;99.90;;;;;;5071640;28;20515;-76
2023/12/22 04:27:37;;;;;;;1999.90;999.90;;;6.60;99.90;;;;;;5071674;28;20179;-77
2023/12/22 04:30:03;;;;;;;1999.90;999.90;;;6.60;99.90;;;;;;5071391;28;20674;-77
2023/12/22 04:32:29;;;;;;;1999.90;999.90;;;6.80;99.90;;;;;;5071531;28;20198;-77
2023/12/22 04:34:55;;;;;;;1999.90;999.90;;;6.80;99.90;;;;;;5071475;28;20413;-77
2023/12/22 04:37:20;;;;;;;1999.90;999.90;;;7.00;99.90;;;;;;5071577;28;20511;-77
2023/12/22 04:39:46;;;;;;;1999.90;999.90;;;7.20;99.90;;;;;;5071600;28;20755;-77
2023/12/22 04:42:11;;;;;;;1999.90;999.90;;;7.20;99.90;;;;;;5071950;28;20181;-77
2023/12/22 04:44:37;;;;;;;1999.90;999.90;;;7.30;99.90;;;;;;5072242;28;20178;-77
2023/12/22 04:47:03;;;;;;;1999.90;999.90;;;7.20;99.90;;;;;;5073789;28;20198;-77
2023/12/22 04:49:28;;;;;;;1999.90;999.90;;;7.40;99.90;;;;;;5074209;28;20241;-78
2023/12/22 04:51:54;;;;;;;1999.90;999.90;;;7.40;99.90;;;;;;5074196;28;20203;-78
2023/12/22 04:54:19;;;;;;;1999.90;999.90;;;7.40;99.90;;;;;;5071317;28;20171;-78
2023/12/22 04:56:45;;;;;;;1999.90;999.90;;;7.40;99.90;;;;;;5071484;28;20171;-78
2023/12/22 04:59:10;;;;;;;1999.90;999.90;;;7.60;99.90;;;;;;5071364;28;20183;-77
2023/12/22 05:01:36;;;;;;;1999.90;999.90;;;7.70;99.90;;;;;;5071232;28;20182;-78
2023/12/22 05:04:02;;;;;;;1999.90;999.90;;;7.70;99.90;;;;;;5071234;28;20261;-78
2023/12/22 05:06:29;;;;;;;1999.90;999.90;;;7.80;99.90;;;;;;5071360;28;20185;-78
2023/12/22 05:08:56;;;;;;;1999.90;999.90;;;7.90;99.90;;;;;;5071242;28;20482;-78
2023/12/22 05:11:22;;;;;;;1999.90;999.90;;;7.80;99.90;;;;;;5070923;28;20457;-78
2023/12/22 05:13:47;;;;;;;1999.90;999.90;;;7.90;99.90;;;;;;5071199;28;20459;-78
2023/12/22 05:16:13;;;;;;;1999.90;999.90;;;8.30;99.90;;;;;;5071555;28;20183;-79
2023/12/22 05:18:39;;;;;;;1999.90;999.90;;;8.00;99.90;;;;;;5072221;28;20682;-78
2023/12/22 05:21:04;;;;;;;1999.90;999.90;;;8.00;99.90;;;;;;5074657;28;20640;-78
2023/12/22 05:23:30;;;;;;;1999.90;999.90;;;7.90;99.90;;;;;;5074874;28;20413;-78
2023/12/22 05:25:56;;;;;;;1999.90;999.90;;;8.10;99.90;;;;;;5074894;28;20204;-78
2023/12/22 05:28:21;;;;;;;1999.90;999.90;;;8.10;99.90;;;;;;5074971;28;20189;-80
2023/12/22 05:30:47;;;;;;;1999.90;999.90;;;8.20;99.90;;;;;;5074416;28;20178;-78
2023/12/22 05:33:12;;;;;;;1999.90;999.90;;;9.00;99.90;;;;;;5074483;28;20175;-78
2023/12/22 05:35:38;;;;;;;1999.90;999.90;;;8.30;99.90;;;;;;5074666;28;20173;-78
2023/12/22 05:38:04;;;;;;;1999.90;999.90;;;8.30;99.90;;;;;;5074481;28;20258;-79
2023/12/22 05:40:31;;;;;;;1999.90;999.90;;;8.30;99.90;;;;;;5074459;28;20163;-78
2023/12/22 05:42:56;;;;;;;1999.90;999.90;;;8.60;99.90;;;;;;5074584;28;20575;-78
2023/12/22 05:45:24;;;;;;;1999.90;999.90;;;8.40;99.90;;;;;;5074411;28;20413;-78
2023/12/22 05:47:50;;;;;;;1999.90;999.90;;;8.30;99.90;;;;;;5074278;28;20510;-78
2023/12/22 05:50:16;;;;;;;1999.90;999.90;;;8.20;99.90;;;;;;5074002;28;20440;-77
2023/12/22 05:52:43;;;;;;;1999.90;999.90;;;8.20;99.90;;;;;;5074264;28;20690;-79
2023/12/22 05:55:09;;;;;;;1999.90;999.90;;;8.50;99.90;;;;;;5074253;28;20429;-77
2023/12/22 05:57:35;;;;;;;1999.90;999.90;;;8.30;99.90;;;;;;5074441;28;20403;-78
2023/12/22 06:00:00;;;;;;;1999.90;999.90;;;8.40;99.90;;;;;;5074514;28;20187;-78
2023/12/22 06:02:26;;;;;;;1999.90;999.90;;;8.50;99.90;;;;;;5077980;28;20182;-77
2023/12/22 06:04:51;;;;;;;1999.90;999.90;;;8.40;99.90;;;;;;5078144;28;20175;-79
2023/12/22 06:07:19;;;;;;;1999.90;999.90;;;8.40;99.90;;;;;;5078027;28;20176;-78
2023/12/22 06:09:45;;;;;;;1999.90;999.90;;;8.10;99.90;;;;;;5075554;28;20243;-76
2023/12/22 06:12:10;;;;;;;1999.90;999.90;;;8.50;99.90;;;;;;5073924;28;20535;-78
2023/12/22 06:14:36;;;;;;;1999.90;999.90;;;8.40;99.90;;;;;;5073879;28;20657;-75
2023/12/22 06:17:02;;;;;;;1999.90;999.90;;;8.50;99.90;;;;;;5073845;28;20237;-77
2023/12/22 06:19:28;;;;;;;1999.90;999.90;;;8.30;99.90;;;;;;5073822;28;20239;-78
2023/12/22 06:21:54;;;;;;;1999.90;999.90;;;8.20;99.90;;;;;;5073790;28;20406;-76
2023/12/22 06:24:19;;;;;;;1999.90;999.90;;;8.20;99.90;;;;;;5073782;28;20412;-78
2023/12/22 06:26:45;;;;;;;1999.90;999.90;;;8.20;99.90;;;;;;5073712;28;20176;-77
2023/12/22 06:29:11;;;;;;;1999.90;999.90;;;8.10;99.90;;;;;;5073544;28;20194;-78
2023/12/22 06:31:36;;;;;;;1999.90;999.90;;;8.10;99.90;;;;;;5073449;28;20199;-78
2023/12/22 06:34:02;;;;;;;1999.90;999.90;;;8.20;99.90;;;;;;5073507;28;20178;-78
2023/12/22 06:36:29;;;;;;;1999.90;999.90;;;8.00;99.90;;;;;;5073564;28;20171;-78
2023/12/22 06:38:55;;;;;;;1999.90;999.90;;;8.10;99.90;;;;;;5073599;28;20184;-78
2023/12/22 06:41:25;;;;;;;1999.90;999.90;;;7.70;99.90;;;;;;5073057;28;20409;-78
2023/12/22 06:43:51;;;;;;;1999.90;999.90;;;7.60;99.90;;;;;;5073110;28;20171;-78
2023/12/22 06:46:18;;;;;;;1999.90;999.90;;;7.50;99.90;;;;;;5073111;28;20406;-78
2023/12/22 06:48:45;;;;;;;1999.90;999.90;;;7.20;99.90;;;;;;5073077;28;20518;-77
2023/12/22 06:51:27;;;;;;;1999.90;999.90;;;7.40;99.90;;;;;;5072965;28;20460;-78
2023/12/22 06:53:57;;;;;;;1999.90;999.90;;;7.40;99.90;;;;;;5073055;28;20402;-77
2023/12/22 06:56:23;;;;;;;1999.90;999.90;;;7.30;99.90;;;;;;5073082;28;20414;-77
2023/12/22 06:58:50;;;;;;;1999.90;999.90;;;7.10;99.90;;;;;;5072951;28;20830;-77
2023/12/22 07:01:31;;;;;;;1999.90;999.90;;;7.40;99.90;;;;;;5072656;28;20463;-77
2023/12/22 07:03:57;;;;;;;1999.90;999.90;;;7.50;99.90;;;;;;5073131;28;20405;-77
2023/12/22 07:06:26;;;;;;;1999.90;999.90;;;7.70;99.90;;;;;;5072827;28;20905;-77
2023/12/22 07:09:19;;;;;;;1999.90;999.90;;;7.60;99.90;;;;;;5072760;28;20190;-78
2023/12/22 07:11:50;;;;;;;1999.90;999.90;;;7.60;99.90;;;;;;5072418;28;20449;-76
2023/12/22 07:14:16;;;;;;;1999.90;999.90;;;7.70;99.90;;;;;;5072546;28;20405;-76
2023/12/22 07:16:42;;;;;;;1999.90;999.90;;;7.70;99.90;;;;;;5072436;28;20433;-76
2023/12/22 07:19:08;;;;;;;1999.90;999.90;;;7.70;99.90;;;;;;5072554;28;20421;-78
2023/12/22 07:21:34;;;;;;;1999.90;999.90;;;7.50;99.90;;;;;;5072291;28;20420;-76
2023/12/22 07:24:00;;;;;;;1999.90;999.90;;;7.60;99.90;;;;;;5072396;28;20402;-77
2023/12/22 07:26:26;;;;;;;1999.90;999.90;;;7.70;99.90;;;;;;5072367;28;20917;-77
2023/12/22 07:28:52;;;;;;;1999.90;999.90;;;8.00;99.90;;;;;;5072409;28;20429;-77
2023/12/22 07:31:18;;;;;;;1999.90;999.90;;;7.80;99.90;;;;;;5072016;28;20459;-77
2023/12/22 07:33:44;;;;;;;1999.90;999.90;;;8.10;99.90;;;;;;5072248;28;20398;-78
2023/12/22 07:36:09;;;;;;;1999.90;999.90;;;7.90;99.90;;;;;;5072387;28;20164;-76
2023/12/22 07:38:36;;;;;;;1999.90;999.90;;;8.00;99.90;;;;;;5072267;28;20781;-76
2023/12/22 07:41:02;;;;;;;1999.90;999.90;;;7.80;99.90;;;;;;5071667;28;20171;-77
2023/12/22 07:43:29;;;;;;;1999.90;999.90;;;7.80;99.90;;;;;;5072278;28;20679;-77
2023/12/22 07:45:55;;;;;;;1999.90;999.90;;;7.80;99.90;;;;;;5073557;28;20592;-79
2023/12/22 07:48:20;;;;;;;1999.90;999.90;;;7.80;99.90;;;;;;5076066;28;20464;-78
2023/12/22 07:50:46;;;;;;;1999.90;999.90;;;7.80;99.90;;;;;;5075917;28;20170;-77
2023/12/22 07:53:12;;;;;;;1999.90;999.90;;;7.90;99.90;;;;;;5075575;28;20175;-78
2023/12/22 07:55:38;;;;;;;1999.90;999.90;;;7.80;99.90;;;;;;5075411;28;20674;-78
2023/12/22 07:58:05;;;;;;;1999.90;999.90;;;7.70;99.90;;;;;;5074567;28;20421;-77
2023/12/22 08:00:30;;;;;;;1999.90;999.90;;;7.90;99.90;;;;;;5074028;28;20437;-77
2023/12/22 08:02:56;;;;;;;1999.90;999.90;;;7.80;99.90;;;;;;5072177;28;21001;-76
2023/12/22 08:05:21;;;;;;;1999.90;999.90;;;7.90;99.90;;;;;;5062117;28;20285;-78
2023/12/22 08:07:47;;;;;;;1999.90;999.90;;;7.90;99.90;;;;;;5072368;28;20661;-78
2023/12/22 08:10:13;;;;;;;1999.90;999.90;;;8.20;99.90;;;;;;5063314;28;20199;-78
2023/12/22 08:12:38;;;;;;;1999.90;999.90;;;8.00;99.90;;;;;;5054439;28;20207;-77
2023/12/22 08:15:05;;;;;;;1999.90;999.90;;;7.90;99.90;;;;;;5053853;28;20190;-78
2023/12/22 08:17:31;;;;;;;1999.90;999.90;;;8.00;99.90;;;;;;5060437;28;20202;-78
2023/12/22 08:19:56;;;;;;;1999.90;999.90;;;8.30;99.90;;;;;;5072775;28;20952;-78
2023/12/22 08:22:22;;;;;;;1999.90;999.90;;;8.10;99.90;;;;;;5054606;28;20413;-79
2023/12/22 08:24:49;;;;;;;1999.90;999.90;;;8.50;99.90;;;;;;5054196;28;20271;-78
2023/12/22 08:27:14;;;;;;;1999.90;999.90;;;8.10;99.90;;;;;;5054283;28;21064;-79
2023/12/22 08:29:40;;;;;;;1999.90;999.90;;;8.30;99.90;;;;;;5054542;28;20441;-74
2023/12/22 08:32:06;;;;;;;1999.90;999.90;;;8.30;99.90;;;;;;5055662;28;20206;-78
2023/12/22 08:34:31;;;;;;;1999.90;999.90;;;8.30;99.90;;;;;;5071523;28;20253;-78
2023/12/22 08:36:57;;;;;;;1999.90;999.90;;;8.50;99.90;;;;;;5071682;28;20897;-79
2023/12/22 08:39:24;;;;;;;1999.90;999.90;;;8.20;99.90;;;;;;5071681;28;20195;-78
2023/12/22 08:41:50;;;;;;;1999.90;999.90;;;8.30;99.90;;;;;;5071431;28;20214;-78
2023/12/22 08:44:15;;;;;;;1999.90;999.90;;;8.30;99.90;;;;;;5071408;28;20414;-78
2023/12/22 08:46:41;;;;;;;1999.90;999.90;;;8.40;99.90;;;;;;5071541;28;20175;-78
2023/12/22 08:49:07;;;;;;;1999.90;999.90;;;8.40;99.90;;;;;;5071443;28;20586;-78
2023/12/22 08:51:36;;;;;;;1999.90;999.90;;;8.70;99.90;;;;;;5071175;28;20234;-78
2023/12/22 08:54:02;;;;;;;1999.90;999.90;;;8.50;99.90;;;;;;5073014;28;20409;-78
2023/12/22 08:56:27;;;;;;;1999.90;999.90;;;8.60;99.90;;;;;;5075285;28;20397;-78
2023/12/22 08:58:59;;;;;;;1999.90;999.90;;;8.50;99.90;;;;;;5075152;28;20237;-78
2023/12/22 09:01:24;;;;;;;1999.90;999.90;;;8.30;99.90;;;;;;5074971;28;20221;-78
2023/12/22 09:03:50;;;;;;;1999.90;999.90;;;8.50;99.90;;;;;;5066692;28;20446;-78
2023/12/22 09:06:20;;;;;;;1999.90;999.90;;;8.50;99.90;;;;;;5074766;28;20191;-77
2023/12/22 09:08:46;;;;;;;1999.90;999.90;;;8.40;99.90;;;;;;5087365;28;20199;-77
2023/12/22 09:11:13;;;;;;;1999.90;999.90;;;8.70;99.90;;;;;;5070167;28;20453;-76
2023/12/22 09:13:40;;;;;;;1999.90;999.90;;;9.10;99.90;;;;;;5074112;28;20182;-78
2023/12/22 09:16:05;;;;;;;1999.90;999.90;;;8.40;99.90;;;;;;5075616;28;20432;-78
2023/12/22 09:18:31;;;;;;;1999.90;999.90;;;8.70;99.90;;;;;;5076148;28;20324;-78
2023/12/22 09:20:57;;;;;;;1999.90;999.90;;;8.70;99.90;;;;;;5077232;28;20626;-78
2023/12/22 09:23:24;;;;;;;1999.90;999.90;;;9.00;99.90;;;;;;5076436;28;20397;-78
2023/12/22 09:25:49;;;;;;;1999.90;999.90;;;8.40;99.90;;;;;;5075894;28;20399;-78
2023/12/22 09:28:15;;;;;;;1999.90;999.90;;;8.70;99.90;;;;;;5074439;28;20852;-77
2023/12/22 09:30:41;;;;;;;1999.90;999.90;;;9.30;99.90;;;;;;5071911;28;20631;-78
2023/12/22 09:33:08;;;;;;;1999.90;999.90;;;8.80;99.90;;;;;;5074981;28;20182;-78
2023/12/22 09:35:34;;;;;;;1999.90;999.90;;;8.60;99.90;;;;;;5070125;28;20410;-78
2023/12/22 09:38:00;;;;;;;1999.90;999.90;;;8.90;99.90;;;;;;5055089;28;20905;-78
2023/12/22 09:40:25;;;;;;;1999.90;999.90;;;8.70;99.90;;;;;;5054957;28;20664;-77
2023/12/22 09:42:55;;;;;;;1999.90;999.90;;;8.90;99.90;;;;;;5055708;28;20172;-78
2023/12/22 09:45:21;;;;;;;1999.90;999.90;;;9.00;99.90;;;;;;5054681;28;20174;-77
2023/12/22 09:47:48;;;;;;;1999.90;999.90;;;9.00;99.90;;;;;;5058374;28;20441;-76
2023/12/22 09:50:15;;;;;;;1999.90;999.90;;;8.80;99.90;;;;;;5074140;28;20966;-78
2023/12/22 09:52:44;;;;;;;1999.90;999.90;;;8.90;99.90;;;;;;5074933;28;20830;-77
2023/12/22 09:55:10;;;;;;;1999.90;999.90;;;8.80;99.90;;;;;;5069772;28;20454;-77
2023/12/22 09:57:38;;;;;;;1999.90;999.90;;;8.80;99.90;;;;;;5067021;28;20423;-77
2023/12/22 10:00:08;;;;;;;1999.90;999.90;;;9.20;99.90;;;;;;5065676;28;20876;-78
2023/12/22 10:02:35;;;;;;;1999.90;999.90;;;8.80;99.90;;;;;;5054283;28;20497;-77
2023/12/22 10:05:02;;;;;;;1999.90;999.90;;;8.80;99.90;;;;;;5063182;28;20431;-77
2023/12/22 10:07:28;;;;;;;1999.90;999.90;;;8.70;99.90;;;;;;5076619;28;20413;-77
2023/12/22 10:09:56;;;;;;;1999.90;999.90;;;8.60;99.90;;;;;;5070753;28;20446;-77
2023/12/22 10:12:21;;;;;;;1999.90;999.90;;;8.60;99.90;;;;;;5076243;28;20465;-77
2023/12/22 10:14:48;;;;;;;1999.90;999.90;;;8.80;99.90;;;;;;5065941;28;20549;-77
2023/12/22 10:17:17;;;;;;;1999.90;999.90;;;8.60;99.90;;;;;;5075448;28;20214;-78
2023/12/22 10:19:43;;;;;;;1999.90;999.90;;;8.50;99.90;;;;;;5074366;28;20451;-77
2023/12/22 10:22:08;;;;;;;1999.90;999.90;;;8.30;99.90;;;;;;5073998;28;20493;-77
2023/12/22 10:24:52;;;;;;;1999.90;999.90;;;8.60;99.90;;;;;;5072774;28;20180;-78
2023/12/22 10:27:22;;;;;;;1999.90;999.90;;;8.60;99.90;;;;;;5075766;28;20203;-79
2023/12/22 10:29:56;;;;;;;1999.90;999.90;;;8.90;99.90;;;;;;5078248;28;20886;-78
2023/12/22 10:32:22;;;;;;;1999.90;999.90;;;8.60;99.90;;;;;;5075080;28;20462;-77
2023/12/22 10:34:48;;;;;;;1999.90;999.90;;;9.00;99.90;;;;;;5056589;28;20514;-77
2023/12/22 10:37:14;;;;;;;1999.90;999.90;;;8.60;99.90;;;;;;5070829;28;20489;-77
2023/12/22 10:39:40;;;;;;;1999.90;999.90;;;8.90;99.90;;;;;;5061117;28;20525;-77
2023/12/22 10:42:06;;;;;;;1999.90;999.90;;;8.50;99.90;;;;;;5069538;28;20172;-77
2023/12/22 10:44:31;;;;;;;1999.90;999.90;;;8.60;99.90;;;;;;5070789;28;20413;-77
2023/12/22 10:46:58;;;;;;;1999.90;999.90;;;8.50;99.90;;;;;;5067794;28;20410;-78
2023/12/22 10:49:25;;;;;;;1999.90;999.90;;;8.50;99.90;;;;;;5066690;28;20248;-78
2023/12/22 10:51:53;;;;;;;1999.90;999.90;;;8.40;99.90;;;;;;5072133;28;20460;-78
2023/12/22 10:54:20;;;;;;;1999.90;999.90;;;8.70;99.90;;;;;;5071021;28;20418;-77
2023/12/22 10:56:46;;;;;;;1999.90;999.90;;;8.60;99.90;;;;;;5070712;28;20415;-78
2023/12/22 10:59:12;;;;;;;1999.90;999.90;;;9.50;99.90;;;;;;5072226;28;20466;-79
2023/12/22 11:01:38;;;;;;;1999.90;999.90;;;8.90;99.90;;;;;;5074062;28;20180;-78
2023/12/22 11:04:07;;;;;;;1999.90;999.90;;;8.80;99.90;;;;;;5066897;28;20183;-76
2023/12/22 11:06:38;;;;;;;1999.90;999.90;;;9.20;99.90;;;;;;5066303;28;20856;-78
2023/12/22 11:09:11;;;;;;;1999.90;999.90;;;9.70;99.90;;;;;;5071852;28;20962;-78
2023/12/22 11:11:38;;;;;;;1999.90;999.90;;;9.30;99.90;;;;;;5074596;28;20475;-78
2023/12/22 11:14:06;;;;;;;1999.90;999.90;;;9.00;99.90;;;;;;5072527;28;20414;-78
2023/12/22 11:16:33;;;;;;;1999.90;999.90;;;9.20;99.90;;;;;;5074257;28;20438;-78
2023/12/22 11:19:00;;;;;;;1999.90;999.90;;;9.20;99.90;;;;;;5074543;28;20445;-79
2023/12/22 11:21:26;;;;;;;1999.90;999.90;;;9.50;99.90;;;;;;5073425;28;20411;-78
2023/12/22 11:23:53;;;;;;;1999.90;999.90;;;9.30;99.90;;;;;;5076175;28;20768;-79
2023/12/22 11:26:19;;;;;;;1999.90;999.90;;;9.70;99.90;;;;;;5075466;28;20414;-78
2023/12/22 11:28:46;;;;;;;1999.90;999.90;;;9.10;99.90;;;;;;5075133;28;20488;-78
2023/12/22 11:31:12;;;;;;;1999.90;999.90;;;9.20;99.90;;;;;;5075287;28;20451;-77
2023/12/22 11:33:43;;;;;;;1999.90;999.90;;;9.60;99.90;;;;;;5076013;28;20411;-78
2023/12/22 11:36:10;;;;;;;1999.90;999.90;;;9.70;99.90;;;;;;5074925;28;20421;-78
2023/12/22 11:38:36;;;;;;;1999.90;999.90;;;9.70;99.90;;;;;;5075003;28;20438;-78
2023/12/22 11:41:03;;;;;;;1999.90;999.90;;;9.90;99.90;;;;;;5076019;28;20410;-78
2023/12/22 11:43:29;;;;;;;1999.90;999.90;;;9.80;99.90;;;;;;5076089;28;20633;-78
2023/12/22 11:45:56;;;;;;;1999.90;999.90;;;9.90;99.90;;;;;;5076649;28;20506;-78
2023/12/22 11:48:22;;;;;;;1999.90;999.90;;;10.20;99.90;;;;;;5075496;28;20459;-78
2023/12/22 11:50:48;;;;;;;1999.90;999.90;;;9.90;99.90;;;;;;5074744;28;20780;-78
2023/12/22 11:53:18;;;;;;;1999.90;999.90;;;10.00;99.90;;;;;;5075324;28;20408;-78
2023/12/22 11:56:05;;;;;;;1999.90;999.90;;;10.40;99.90;;;;;;5075762;28;20167;-78
2023/12/22 11:58:33;;;;;;;1999.90;999.90;;;10.10;99.90;;;;;;5067053;28;20429;-78
2023/12/22 12:01:01;;;;;;;1999.90;999.90;;;10.10;99.90;;;;;;5074884;28;20402;-78
2023/12/22 12:03:27;;;;;;;1999.90;999.90;;;10.10;99.90;;;;;;5074909;28;20405;-77
2023/12/22 12:06:18;;;;;;;1999.90;999.90;;;10.20;99.90;;;;;;5075162;28;20402;-78